Terminal Aerodrome Forecast
Issued by NWS Mt. Holly, NJ

Home | Current Version | Previous Version | Text Only | Print | Product List | Glossary On
Versions: 1 2 3 4 5 6 7 8 9 10 11 12 13 14 15 16 17 18 19 20 21 22 23 24 25 26 27 28
132
FTAK31 PANC 200540
TAFABE
TAF
PABE 200540Z 2006/2106 03020G30KT 1SM -SN BLSN BKN008 WS015/17025KT
      TEMPO 2006/2008 1/2SM SN BLSN BKN006
     FM200900 34015G25KT 1SM -SN BLSN BKN008
     FM201500 33012KT 5SM -SHSN SCT009 BKN015
     FM202100 31010KT P6SM SCT020 BKN040=

USA.gov is the U.S. government's official web portal to all federal, state and local government web resources and services.